createdAt,value
2022-10-02T00:09:46.222Z,11.75
2022-10-02T00:20:15.076Z,11.67
2022-10-02T00:30:52.527Z,11.70
2022-10-02T00:42:06.152Z,11.89
2022-10-02T00:52:47.997Z,11.97
2022-10-02T01:03:18.081Z,11.94
2022-10-02T01:13:44.145Z,12.13
2022-10-02T01:24:15.224Z,12.01
2022-10-02T01:34:40.499Z,11.97
2022-10-02T01:45:08.917Z,11.96
2022-10-02T01:55:40.986Z,12.02
2022-10-02T02:06:12.983Z,11.96
2022-10-02T02:16:42.443Z,11.94
2022-10-02T02:27:11.299Z,12.00
2022-10-02T02:37:39.765Z,11.93
2022-10-02T02:48:09.760Z,11.89
2022-10-02T02:58:41.309Z,11.98
2022-10-02T03:09:08.152Z,11.98
2022-10-02T03:19:43.597Z,11.98
2022-10-02T03:30:11.529Z,12.02
2022-10-02T03:40:36.155Z,12.01
2022-10-02T03:51:00.786Z,11.94
2022-10-02T04:01:29.744Z,11.87
2022-10-02T04:11:59.874Z,11.80
2022-10-02T04:22:33.311Z,11.80
2022-10-02T04:33:06.406Z,11.94
2022-10-02T04:43:42.955Z,11.93
2022-10-02T04:54:30.461Z,12.15
2022-10-02T05:05:18.549Z,12.19
2022-10-02T05:16:02.366Z,12.08
2022-10-02T05:26:59.567Z,12.08
2022-10-02T05:37:43.647Z,12.13
2022-10-02T05:48:15.678Z,12.15
2022-10-02T05:58:50.321Z,12.07
2022-10-02T06:09:20.129Z,12.12
2022-10-02T06:19:54.010Z,12.32
2022-10-02T06:30:19.323Z,12.38
2022-10-02T06:40:50.236Z,12.49
2022-10-02T06:51:22.835Z,12.56
2022-10-02T07:01:57.654Z,12.58
2022-10-02T07:12:53.510Z,12.67
2022-10-02T07:23:46.132Z,12.84
2022-10-02T07:34:31.471Z,13.04
2022-10-02T07:45:20.638Z,13.07
2022-10-02T07:55:52.165Z,13.46
2022-10-02T08:06:17.460Z,13.66
2022-10-02T08:16:47.832Z,13.97
2022-10-02T08:27:19.272Z,13.98
2022-10-02T08:37:57.321Z,14.02
2022-10-02T08:49:12.683Z,14.20
2022-10-02T09:00:06.832Z,14.35
2022-10-02T09:11:02.221Z,14.48
2022-10-02T09:21:50.455Z,14.59
2022-10-02T09:32:59.687Z,14.87
2022-10-02T09:43:54.577Z,14.94
2022-10-02T09:54:53.549Z,15.07
2022-10-02T10:05:51.531Z,15.45
2022-10-02T10:17:08.581Z,15.65
2022-10-02T10:27:58.822Z,15.77
2022-10-02T10:38:50.287Z,15.66
2022-10-02T10:50:04.471Z,15.57
2022-10-02T11:00:40.592Z,15.50
2022-10-02T11:11:18.026Z,15.42
2022-10-02T11:22:13.173Z,15.34
2022-10-02T11:33:10.275Z,15.25
2022-10-02T11:43:48.245Z,15.25
2022-10-02T11:54:44.369Z,15.29
2022-10-02T12:05:24.927Z,15.34
2022-10-02T12:15:58.127Z,15.38
2022-10-02T12:26:59.843Z,15.49
2022-10-02T12:37:32.775Z,15.77
2022-10-02T12:48:18.479Z,16.00
2022-10-02T12:58:54.675Z,16.09
2022-10-02T13:09:33.064Z,16.15
2022-10-02T13:20:11.671Z,16.13
2022-10-02T13:30:43.413Z,16.12
2022-10-02T13:41:23.019Z,16.11
2022-10-02T13:51:57.134Z,16.11
2022-10-02T14:02:38.163Z,16.01
2022-10-02T14:13:20.968Z,15.94
2022-10-02T14:24:13.599Z,15.97
2022-10-02T14:35:09.675Z,15.95
2022-10-02T14:46:04.319Z,15.89
2022-10-02T14:56:45.808Z,15.83
2022-10-02T15:07:16.434Z,15.79
2022-10-02T15:17:56.619Z,15.82
2022-10-02T15:28:37.480Z,15.85
2022-10-02T15:39:25.977Z,15.90
2022-10-02T15:50:09.838Z,15.89
2022-10-02T16:01:01.235Z,15.75
2022-10-02T16:11:54.111Z,15.66
2022-10-02T16:22:38.731Z,15.59
2022-10-02T16:33:21.286Z,15.44
2022-10-02T16:44:03.892Z,15.45
2022-10-02T16:54:43.617Z,15.46
2022-10-02T17:05:24.872Z,15.44
2022-10-02T17:15:59.197Z,15.41
2022-10-02T17:26:36.070Z,15.40
2022-10-02T17:37:27.444Z,15.38
2022-10-02T17:48:16.680Z,15.38
2022-10-02T17:58:56.695Z,15.20
2022-10-02T18:09:45.518Z,14.68
2022-10-02T18:20:24.896Z,14.38
2022-10-02T18:31:03.896Z,14.11
2022-10-02T18:41:50.439Z,13.58
2022-10-02T18:52:41.893Z,13.13
2022-10-02T19:03:28.849Z,12.91
2022-10-02T19:14:02.460Z,12.75
2022-10-02T19:24:35.606Z,12.63
2022-10-02T19:35:12.248Z,12.41
2022-10-02T19:45:44.317Z,12.36
2022-10-02T19:56:16.925Z,12.42
2022-10-02T20:06:48.589Z,12.37
2022-10-02T20:17:18.008Z,12.37
2022-10-02T20:27:52.090Z,12.33
2022-10-02T20:38:25.499Z,12.39
2022-10-02T20:49:09.430Z,12.57
2022-10-02T21:00:15.777Z,12.79
2022-10-02T21:11:13.533Z,12.85
2022-10-02T21:22:15.309Z,12.59
2022-10-02T21:32:58.080Z,12.24
2022-10-02T21:44:03.824Z,11.95
2022-10-02T21:54:58.687Z,11.75
2022-10-02T22:05:49.595Z,11.94
2022-10-02T22:16:30.670Z,11.83
2022-10-02T22:27:21.404Z,11.83
2022-10-02T22:38:05.523Z,11.87
2022-10-02T22:48:41.235Z,11.81
2022-10-02T22:59:19.603Z,11.72
2022-10-02T23:09:52.993Z,11.67
2022-10-02T23:20:30.294Z,11.64
2022-10-02T23:31:09.822Z,11.59
2022-10-02T23:41:47.797Z,11.61
2022-10-02T23:52:33.480Z,11.64
